Accueil
METAR-TAF:

METAR-TAF

Aéroports :

Aéroport des Abruzzes

Pescara, Italie

latitude: 42-26N, longitude: 014-12E, altitude: 10 m

Observation

Le bulletin a été fait il y a 34 minutes, à 22:50 UTC
Vent 5 kt de ouest/sud-ouest
Température 22°C
Humidité 78%
Pression 1015 hPa
Visibilité 10 km ou plus

METAR: LIBP 032250Z AUTO 24005KT 9999 NCD 22/18 Q1015

Heure: 01:24 (23:24 UTC)

Prévision

Le bulletin a été fait il y a 6 heures et 24 minutes, à 17:00 UTC
Prévision valable du 03 à 18 UTC au 04 à 18 UTC
Vent 10 kt de est
Visibilité 10 km ou plus
pas de nuages en-dessous de 1500 mètres et pas de cumulonimbus.
Evoluant progressivement
du 03 à 18 UTC au 03 à 21 UTC
Vent 8 kt de ouest/sud-ouest
Evoluant progressivement
du 04 à 04 UTC au 04 à 07 UTC
Vent 10 kt de est

TAF: LIBP 031700Z 0318/0418 08010KT CAVOK BECMG 0318/0321 24008KT BECMG 0404/0407 08010KT

Observations et prévisions météorologiques de plus de 4000 aéroports (messages METAR et TAF).

Les stations disponibles sont représentées par des disques jaunes et rouges sur la carte.

Passer la souris dessus pour voir le nom de la station.

Cliquer dessus pour voir les observations et prévisions météorologiques.

Pour changer de carte: cliquez sur les boutons verts avec une croix noire pour zoomer, sur le bouton vert avec un tiret pour effectuer un zoom arrière, ou sur les flèches vertes pour les cartes adjacentes.


METAR-TAF: